Time;durP1;ratioP1;P1;durP2;ratioP2;P2;SDS_P1;SDS_P2;PMS_P1;PMS_P2;Temp;Humidity;BMP_temperature;BMP_pressure;BME280_temperature;BME280_humidity;BME280_pressure;Samples;Min_cycle;Max_cycle;Signal;HPM_P1;HPM_P2
2023/08/27 00:00:23;;;;;;;4.55;1.10;;;;;;;17.02;100.00;100039.81;8324930;28;20463;-59
2023/08/27 00:04:24;;;;;;;1.13;0.90;;;;;;;17.35;99.44;100016.41;8325235;28;20087;-59
2023/08/27 00:08:25;;;;;;;2.78;1.02;;;;;;;17.55;97.11;100008.44;8325303;28;20116;-58
2023/08/27 00:12:25;;;;;;;1.95;0.82;;;;;;;17.54;97.54;99995.81;8324292;28;20063;-59
2023/08/27 00:16:26;;;;;;;3.03;0.80;;;;;;;17.44;97.95;99987.94;8324976;28;20407;-56
2023/08/27 00:20:27;;;;;;;1.95;1.02;;;;;;;17.12;100.00;99963.03;8324837;28;20033;-57
2023/08/27 00:24:27;;;;;;;1.15;1.00;;;;;;;16.76;100.00;99962.22;8306802;28;20048;-58
2023/08/27 00:28:28;;;;;;;2.72;1.13;;;;;;;16.76;100.00;99943.13;8324824;28;20045;-58
2023/08/27 00:32:30;;;;;;;8.90;1.55;;;;;;;16.71;100.00;99931.97;8324385;28;20037;-58
2023/08/27 00:36:30;;;;;;;1.10;1.00;;;;;;;16.85;100.00;99917.38;8302395;28;20049;-58
2023/08/27 00:40:31;;;;;;;6.68;1.30;;;;;;;16.78;100.00;99911.03;8319698;28;20037;-58
2023/08/27 00:44:31;;;;;;;3.63;1.48;;;;;;;16.52;100.00;99916.19;8323937;28;20065;-58
2023/08/27 00:48:32;;;;;;;2.28;1.00;;;;;;;16.55;100.00;99921.25;8304997;28;20049;-58
2023/08/27 00:52:33;;;;;;;4.22;1.40;;;;;;;16.65;100.00;99921.81;8301014;28;20045;-58
2023/08/27 00:56:35;;;;;;;4.70;1.40;;;;;;;16.69;100.00;99931.31;8291620;28;20089;-60
2023/08/27 01:00:36;;;;;;;2.67;1.63;;;;;;;16.54;100.00;99935.97;8290099;28;20052;-60
2023/08/27 01:04:36;;;;;;;2.60;1.35;;;;;;;16.55;100.00;99946.69;8321088;28;20515;-59
2023/08/27 01:08:58;;;;;;;1.85;1.40;;;;;;;16.69;100.00;99944.94;8323690;28;20025;-59
2023/08/27 01:13:04;;;;;;;2.40;1.30;;;;;;;16.72;100.00;99958.22;8322658;28;20042;-60
2023/08/27 01:17:06;;;;;;;2.20;1.50;;;;;;;16.75;100.00;99976.94;8320926;28;20080;-59
2023/08/27 01:21:23;;;;;;;3.13;1.52;;;;;;;16.79;100.00;99973.63;8322805;28;20041;-60
2023/08/27 01:25:42;;;;;;;3.88;1.45;;;;;;;16.81;100.00;99987.09;8323064;28;20095;-59
2023/08/27 01:29:52;;;;;;;2.25;1.50;;;;;;;16.70;100.00;99979.38;8322125;28;20099;-59
2023/08/27 01:33:56;;;;;;;3.15;1.40;;;;;;;16.72;100.00;99975.44;8309671;28;20037;-60
2023/08/27 01:37:56;;;;;;;2.00;1.50;;;;;;;16.73;100.00;99962.63;8306265;28;20093;-59
2023/08/27 01:41:57;;;;;;;3.92;1.30;;;;;;;16.64;100.00;99959.19;8265101;28;20037;-59
2023/08/27 01:45:57;;;;;;;2.05;1.30;;;;;;;16.61;100.00;99954.09;8275714;28;20050;-58
2023/08/27 01:49:59;;;;;;;1.60;1.42;;;;;;;16.62;100.00;99949.50;8292530;28;20044;-58
2023/08/27 01:53:59;;;;;;;4.30;1.45;;;;;;;16.61;100.00;99942.31;8290053;28;20048;-58
2023/08/27 01:58:00;;;;;;;3.67;1.48;;;;;;;16.69;99.75;99939.50;8307856;28;20102;-58
2023/08/27 02:02:02;;;;;;;4.88;1.48;;;;;;;16.72;99.99;99931.78;8310860;28;20041;-58
2023/08/27 02:06:03;;;;;;;3.40;1.90;;;;;;;16.57;100.00;99930.13;8306683;28;20113;-58
2023/08/27 02:10:05;;;;;;;3.25;1.50;;;;;;;16.36;100.00;99943.69;8309573;28;20495;-58
2023/08/27 02:14:06;;;;;;;2.47;1.65;;;;;;;16.29;100.00;99929.13;8306962;28;20042;-58
2023/08/27 02:18:06;;;;;;;2.13;1.45;;;;;;;16.28;100.00;99925.53;8305426;28;20037;-58
2023/08/27 02:22:07;;;;;;;2.83;1.58;;;;;;;16.31;100.00;99913.44;8308406;28;20052;-58
2023/08/27 02:26:07;;;;;;;4.50;1.58;;;;;;;16.27;100.00;99907.50;8309138;28;20042;-63
2023/08/27 02:30:08;;;;;;;5.68;1.67;;;;;;;16.47;100.00;99897.66;8308453;28;20040;-63
2023/08/27 02:34:09;;;;;;;2.03;1.73;;;;;;;16.52;99.61;99899.81;8288450;28;20050;-63
2023/08/27 02:38:10;;;;;;;1.75;1.48;;;;;;;16.22;100.00;99909.13;8308644;28;20069;-62
2023/08/27 02:42:11;;;;;;;4.50;1.70;;;;;;;16.10;100.00;99899.72;8306397;28;20048;-62
2023/08/27 02:46:12;;;;;;;2.70;1.42;;;;;;;16.07;100.00;99905.56;8308310;28;20037;-63
2023/08/27 02:50:12;;;;;;;3.55;1.80;;;;;;;16.19;100.00;99901.31;8304682;28;20033;-62
2023/08/27 02:54:13;;;;;;;3.28;1.30;;;;;;;16.34;100.00;99907.56;8305801;28;20041;-62
2023/08/27 02:58:13;;;;;;;2.40;1.58;;;;;;;16.35;100.00;99899.19;8306786;28;20042;-60
2023/08/27 03:02:14;;;;;;;2.88;1.80;;;;;;;16.39;100.00;99894.19;8309840;28;20469;-60
2023/08/27 03:06:15;;;;;;;2.83;1.48;;;;;;;16.47;100.00;99896.84;8305185;28;20124;-60
2023/08/27 03:10:16;;;;;;;3.65;1.45;;;;;;;16.48;100.00;99893.06;8307266;28;20038;-60
2023/08/27 03:14:16;;;;;;;3.20;1.73;;;;;;;16.47;100.00;99880.47;8303640;28;20038;-60
2023/08/27 03:18:17;;;;;;;2.28;1.20;;;;;;;16.52;100.00;99888.91;8305455;28;20466;-60
2023/08/27 03:22:17;;;;;;;4.18;1.60;;;;;;;16.54;100.00;99876.78;8307850;28;20045;-60
2023/08/27 03:26:18;;;;;;;1.45;1.10;;;;;;;16.54;100.00;99875.91;8307224;28;20045;-62
2023/08/27 03:30:18;;;;;;;1.83;1.45;;;;;;;16.57;100.00;99886.44;8314145;28;20111;-63
2023/08/27 03:34:19;;;;;;;3.60;1.20;;;;;;;16.51;100.00;99874.44;8310712;28;20427;-61
2023/08/27 03:38:20;;;;;;;5.07;1.40;;;;;;;16.56;100.00;99869.22;8310812;28;20038;-62
2023/08/27 03:42:20;;;;;;;2.35;1.40;;;;;;;16.55;100.00;99874.88;8312037;28;20052;-62
2023/08/27 03:46:21;;;;;;;2.22;1.23;;;;;;;16.63;100.00;99874.75;8311466;28;20329;-63
2023/08/27 03:50:22;;;;;;;3.25;1.65;;;;;;;16.67;100.00;99879.63;8306418;28;20107;-62
2023/08/27 03:54:22;;;;;;;1.67;1.27;;;;;;;16.83;100.00;99876.63;8307641;28;20044;-62
2023/08/27 03:58:23;;;;;;;3.08;1.35;;;;;;;16.92;100.00;99885.53;8311192;28;20116;-62
2023/08/27 04:02:23;;;;;;;1.60;1.20;;;;;;;17.02;100.00;99886.88;8315467;28;20037;-63
2023/08/27 04:06:24;;;;;;;7.95;1.70;;;;;;;17.14;99.76;99887.22;8310263;28;20034;-60
2023/08/27 04:10:24;;;;;;;1.98;1.20;;;;;;;17.22;98.09;99887.91;8294089;28;20443;-60
2023/08/27 04:14:24;;;;;;;1.65;1.20;;;;;;;17.30;97.93;99892.38;8310847;28;20037;-60
2023/08/27 04:18:27;;;;;;;2.15;1.33;;;;;;;17.21;98.59;99885.34;8309436;28;20059;-61
2023/08/27 04:22:27;;;;;;;1.40;1.08;;;;;;;17.25;99.41;99897.56;8312765;28;20121;-60
2023/08/27 04:26:28;;;;;;;3.17;1.20;;;;;;;17.28;99.84;99897.19;8292330;28;20044;-60
2023/08/27 04:30:28;;;;;;;2.00;1.33;;;;;;;17.38;100.00;99901.25;8294897;28;20037;-60
2023/08/27 04:34:29;;;;;;;1.40;1.13;;;;;;;17.31;99.17;99894.03;8309312;28;20047;-60
2023/08/27 04:38:30;;;;;;;1.67;1.30;;;;;;;17.29;99.96;99899.72;8311524;28;20112;-60
2023/08/27 04:42:30;;;;;;;2.97;1.63;;;;;;;17.44;99.34;99902.38;8309401;28;20180;-60
2023/08/27 04:46:31;;;;;;;2.63;1.30;;;;;;;17.48;98.61;99898.22;8309327;28;20066;-60
2023/08/27 04:50:31;;;;;;;2.40;1.05;;;;;;;17.38;99.96;99898.53;8308595;28;20042;-60
2023/08/27 04:54:32;;;;;;;1.48;1.10;;;;;;;17.30;100.00;99912.31;8308397;28;20042;-61
2023/08/27 04:58:33;;;;;;;6.00;1.30;;;;;;;17.22;100.00;99897.97;8300351;28;20065;-63
2023/08/27 05:02:34;;;;;;;3.88;1.20;;;;;;;17.10;100.00;99899.53;8305753;28;20052;-62
2023/08/27 05:06:36;;;;;;;3.88;1.52;;;;;;;17.05;100.00;99891.94;8310598;28;20089;-59
2023/08/27 05:10:36;;;;;;;1.83;1.63;;;;;;;17.06;100.00;99903.72;8310679;28;20041;-59
2023/08/27 05:14:37;;;;;;;4.13;1.73;;;;;;;17.12;100.00;99902.94;8291135;28;20115;-59
2023/08/27 05:18:37;;;;;;;3.58;1.67;;;;;;;17.23;100.00;99905.97;8307589;28;20111;-62
2023/08/27 05:22:38;;;;;;;1.88;1.50;;;;;;;17.27;100.00;99890.03;8311064;28;20046;-61
2023/08/27 05:26:38;;;;;;;2.28;1.33;;;;;;;17.12;100.00;99892.00;8308191;28;20046;-62
2023/08/27 05:30:42;;;;;;;1.83;1.55;;;;;;;17.21;100.00;99880.75;8309454;28;20053;-62
2023/08/27 05:34:42;;;;;;;3.08;1.77;;;;;;;17.25;100.00;99882.03;8316730;28;20388;-62
2023/08/27 05:38:45;;;;;;;7.85;1.63;;;;;;;17.20;100.00;99892.69;8312796;28;20045;-62
2023/08/27 05:42:46;;;;;;;3.60;2.00;;;;;;;17.18;100.00;99892.06;8304792;28;20123;-62
2023/08/27 05:46:47;;;;;;;3.08;1.65;;;;;;;17.21;100.00;99885.34;8305714;28;20053;-59
2023/08/27 05:50:48;;;;;;;3.53;1.73;;;;;;;17.24;100.00;99884.97;8306939;28;20374;-59
2023/08/27 05:54:49;;;;;;;3.33;1.58;;;;;;;17.28;100.00;99886.25;8309249;28;20499;-59
2023/08/27 05:58:51;;;;;;;5.68;1.80;;;;;;;17.27;100.00;99896.31;8309344;28;20045;-58
2023/08/27 06:02:52;;;;;;;3.17;1.70;;;;;;;17.39;100.00;99911.13;8309295;28;20081;-60
2023/08/27 06:06:52;;;;;;;4.38;2.00;;;;;;;17.65;100.00;99915.97;8308392;28;20057;-58
2023/08/27 06:10:53;;;;;;;3.58;1.90;;;;;;;17.76;100.00;99903.63;8306117;28;20072;-58
2023/08/27 06:14:53;;;;;;;3.28;1.75;;;;;;;17.73;100.00;99906.75;8309189;28;20045;-58
2023/08/27 06:18:54;;;;;;;2.22;1.85;;;;;;;17.93;100.00;99911.28;8305085;28;20046;-59
2023/08/27 06:22:54;;;;;;;1.90;1.50;;;;;;;17.98;100.00;99908.81;8312154;28;20129;-58
2023/08/27 06:26:55;;;;;;;2.45;1.38;;;;;;;18.23;100.00;99918.19;8310205;28;20042;-61
2023/08/27 06:30:56;;;;;;;1.85;1.27;;;;;;;18.28;100.00;99918.41;8304270;28;20474;-59
2023/08/27 06:34:56;;;;;;;4.35;1.33;;;;;;;18.30;100.00;99910.81;8304793;28;20046;-59
2023/08/27 06:38:57;;;;;;;3.90;1.35;;;;;;;18.56;100.00;99932.88;8305604;28;20478;-59
2023/08/27 06:42:58;;;;;;;2.58;1.02;;;;;;;18.58;100.00;99919.81;8302311;28;20042;-59
2023/08/27 06:47:03;;;;;;;4.10;1.42;;;;;;;18.68;100.00;99919.41;8300323;28;20383;-59
2023/08/27 06:51:05;;;;;;;4.35;1.30;;;;;;;18.75;100.00;99925.75;8302737;28;20053;-58
2023/08/27 06:55:06;;;;;;;2.05;1.30;;;;;;;19.01;100.00;99926.66;8285983;28;20092;-59
2023/08/27 06:59:10;;;;;;;3.25;1.55;;;;;;;19.38;98.57;99923.31;8302709;28;20076;-59
2023/08/27 07:03:10;;;;;;;2.25;1.30;;;;;;;20.10;95.81;99933.31;8309628;28;20041;-59
2023/08/27 07:07:12;;;;;;;2.28;1.67;;;;;;;20.47;94.50;99941.66;8309376;28;20061;-59
2023/08/27 07:11:13;;;;;;;3.47;1.63;;;;;;;20.50;90.84;99937.63;8310660;28;20045;-59
2023/08/27 07:15:14;;;;;;;1.90;1.30;;;;;;;20.46;91.23;99933.63;8310599;28;20121;-59
2023/08/27 07:19:14;;;;;;;3.47;1.60;;;;;;;20.62;89.58;99933.13;8308427;28;20417;-58
2023/08/27 07:23:16;;;;;;;4.07;1.80;;;;;;;20.58;89.31;99937.34;8311030;28;20096;-58
2023/08/27 07:27:16;;;;;;;3.53;1.60;;;;;;;20.43;88.58;99942.31;8310609;28;20049;-60
2023/08/27 07:31:17;;;;;;;5.97;2.10;;;;;;;20.57;86.84;99935.69;8312458;28;20507;-59
2023/08/27 07:35:17;;;;;;;5.15;2.20;;;;;;;20.39;88.49;99938.28;8308388;28;20463;-59
2023/08/27 07:39:18;;;;;;;3.65;2.00;;;;;;;20.15;87.01;99937.13;8311874;28;20416;-60
2023/08/27 07:43:19;;;;;;;7.28;1.90;;;;;;;20.43;87.99;99934.91;8309593;28;20038;-60
2023/08/27 07:47:20;;;;;;;3.13;1.80;;;;;;;20.68;86.96;99937.75;8305463;28;20041;-59
2023/08/27 07:51:20;;;;;;;4.78;1.90;;;;;;;20.85;86.72;99944.41;8305635;28;20302;-60
2023/08/27 07:55:21;;;;;;;5.97;1.50;;;;;;;20.96;84.83;99952.84;8307331;28;20499;-60
2023/08/27 07:59:23;;;;;;;7.07;2.08;;;;;;;20.99;86.84;99951.53;8306854;28;20037;-62
2023/08/27 08:03:23;;;;;;;4.00;2.10;;;;;;;20.82;84.10;99961.31;8307257;28;20038;-62
2023/08/27 08:07:25;;;;;;;3.22;1.80;;;;;;;20.94;85.46;99960.44;8288688;28;20073;-62
2023/08/27 08:11:25;;;;;;;3.33;1.95;;;;;;;20.94;83.59;99954.94;8306503;28;20038;-61
2023/08/27 08:15:26;;;;;;;3.75;2.10;;;;;;;20.80;84.96;99946.97;8305918;28;20041;-62
2023/08/27 08:19:26;;;;;;;3.00;2.03;;;;;;;20.66;85.41;99967.34;8303525;28;20315;-62
2023/08/27 08:23:27;;;;;;;3.33;1.95;;;;;;;20.40;86.85;99956.47;8305057;28;20495;-61
2023/08/27 08:27:27;;;;;;;3.80;1.95;;;;;;;20.49;86.10;99949.69;8304658;28;20060;-62
2023/08/27 08:31:28;;;;;;;8.55;2.40;;;;;;;20.56;86.02;99950.50;8308094;28;20044;-61
2023/08/27 08:35:28;;;;;;;3.35;1.73;;;;;;;20.76;84.67;99956.69;8304748;28;20045;-60
2023/08/27 08:39:29;;;;;;;2.97;2.00;;;;;;;20.98;84.64;99963.59;8306735;28;20407;-62
2023/08/27 08:43:44;;;;;;;4.10;1.83;;;;;;;21.06;83.62;99960.56;8303781;28;20042;-62
2023/08/27 08:47:46;;;;;;;4.95;1.73;;;;;;;21.16;83.27;99959.03;8299589;28;20049;-59
2023/08/27 08:51:51;;;;;;;4.07;1.95;;;;;;;21.03;83.36;99966.50;8304894;28;20073;-60
2023/08/27 08:55:56;;;;;;;;;;;;;;;20.90;81.38;99959.19;8305316;28;20052;-60
2023/08/27 08:59:57;;;;;;;3.65;1.80;;;;;;;20.58;83.53;99959.31;8306531;28;19971;-59
2023/08/27 09:04:00;;;;;;;4.00;1.80;;;;;;;20.75;85.11;99960.53;8288211;28;20574;-59
2023/08/27 09:08:04;;;;;;;3.10;1.83;;;;;;;21.12;82.19;99945.94;8302792;28;20318;-60
2023/08/27 09:12:07;;;;;;;3.85;1.67;;;;;;;21.25;83.25;99954.09;8289331;28;20658;-60
2023/08/27 09:16:08;;;;;;;4.25;1.77;;;;;;;21.99;78.59;99957.69;8285190;28;20124;-59
2023/08/27 09:20:09;;;;;;;4.45;1.65;;;;;;;21.84;79.22;99950.88;8302172;28;20091;-58
2023/08/27 09:24:10;;;;;;;3.58;1.77;;;;;;;22.12;77.91;99952.06;8305494;28;20044;-58
2023/08/27 09:28:11;;;;;;;3.75;1.70;;;;;;;22.33;77.79;99957.09;8304699;28;20144;-62
2023/08/27 09:32:22;;;;;;;3.25;1.60;;;;;;;23.01;76.42;99946.66;8303635;28;20312;-62
2023/08/27 09:36:25;;;;;;;3.50;1.35;;;;;;;23.56;71.56;99942.63;8304184;28;20410;-62
2023/08/27 09:40:25;;;;;;;4.47;1.50;;;;;;;23.42;69.68;99943.09;8302398;28;20410;-61
2023/08/27 09:44:26;;;;;;;3.38;1.73;;;;;;;23.92;67.23;99938.78;8302322;28;20070;-62
2023/08/27 09:48:27;;;;;;;1.55;1.17;;;;;;;25.51;61.12;99931.31;8303392;28;20037;-62
2023/08/27 09:52:27;;;;;;;1.85;0.90;;;;;;;25.40;61.77;99926.72;8301197;28;20029;-62
2023/08/27 09:56:28;;;;;;;2.30;1.05;;;;;;;25.15;61.17;99920.72;8303411;28;20057;-62
2023/08/27 10:00:29;;;;;;;2.85;1.05;;;;;;;26.99;57.43;99924.56;8306354;28;20188;-62
2023/08/27 10:04:29;;;;;;;4.63;1.23;;;;;;;26.88;56.34;99927.47;8301879;28;20038;-62
2023/08/27 10:08:30;;;;;;;4.35;1.00;;;;;;;28.11;53.11;99916.91;8303531;28;20410;-62
2023/08/27 10:12:31;;;;;;;5.38;0.90;;;;;;;28.47;52.11;99924.38;8302468;28;20034;-62
2023/08/27 10:16:36;;;;;;;2.33;0.95;;;;;;;28.07;52.35;99910.25;8301613;28;20046;-62
2023/08/27 10:20:40;;;;;;;2.30;0.82;;;;;;;29.13;51.86;99906.81;8300990;28;20232;-62
2023/08/27 10:24:41;;;;;;;1.65;0.80;;;;;;;29.52;52.30;99909.91;8270407;28;20064;-62
2023/08/27 10:28:44;;;;;;;2.55;1.08;;;;;;;31.39;48.10;99890.28;8303198;28;20030;-62
2023/08/27 10:32:45;;;;;;;1.77;0.90;;;;;;;30.37;48.95;99907.84;8303415;28;20117;-62
2023/08/27 10:36:46;;;;;;;3.55;0.80;;;;;;;28.26;52.38;99900.31;8310970;28;20042;-61
2023/08/27 10:40:48;;;;;;;2.75;0.98;;;;;;;28.94;51.31;99900.03;8307331;28;20045;-61
2023/08/27 10:45:09;;;;;;;3.08;0.80;;;;;;;30.73;48.47;99885.38;8306898;28;20526;-61
2023/08/27 10:49:17;;;;;;;1.08;0.50;;;;;;;31.67;47.36;99891.44;8307224;28;20041;-60
2023/08/27 10:53:19;;;;;;;1.83;0.47;;;;;;;31.90;44.84;99887.91;8307461;28;20125;-61
2023/08/27 10:57:21;;;;;;;1.52;0.65;;;;;;;31.17;45.87;99894.63;8309703;28;20512;-61
2023/08/27 11:01:22;;;;;;;1.25;0.50;;;;;;;31.85;44.23;99887.94;8307321;28;20129;-61
2023/08/27 11:05:26;;;;;;;1.25;0.68;;;;;;;32.59;42.99;99881.81;8309327;28;20048;-61
2023/08/27 11:09:27;;;;;;;0.57;0.32;;;;;;;31.09;45.08;99872.88;8308283;28;20044;-61
2023/08/27 11:13:36;;;;;;;3.13;0.60;;;;;;;27.67;49.77;99873.81;8308270;28;20657;-61
2023/08/27 11:17:38;;;;;;;0.98;0.52;;;;;;;27.34;55.88;99866.63;8306121;28;20156;-61
2023/08/27 11:25:51;;;;;;;3.15;0.68;;;;;;;29.33;49.71;99875.38;8341995;27;20985;-60
2023/08/27 11:29:53;;;;;;;2.00;0.70;;;;;;;31.25;47.93;99878.06;8332304;28;20816;-60
2023/08/27 11:33:54;;;;;;;1.35;0.65;;;;;;;32.05;44.28;99876.53;8332296;28;20045;-60
2023/08/27 11:37:55;;;;;;;0.80;0.43;;;;;;;30.73;45.23;99875.03;8330581;28;20133;-60
2023/08/27 11:41:56;;;;;;;1.98;0.88;;;;;;;29.74;48.44;99880.66;8330593;28;20486;-60
2023/08/27 11:45:56;;;;;;;2.13;0.50;;;;;;;30.20;46.71;99875.84;8331851;28;20078;-61
2023/08/27 11:49:58;;;;;;;2.60;0.70;;;;;;;27.27;50.51;99887.38;8338144;28;20490;-60
2023/08/27 11:53:59;;;;;;;1.50;0.40;;;;;;;25.36;57.01;99879.31;8332152;28;20056;-60
2023/08/27 11:58:00;;;;;;;2.00;0.60;;;;;;;24.36;61.02;99892.03;8329123;28;20128;-62
2023/08/27 12:02:02;;;;;;;1.08;0.50;;;;;;;25.38;60.24;99877.13;8332573;28;20130;-61
2023/08/27 12:06:03;;;;;;;1.85;0.73;;;;;;;26.22;54.47;99879.50;8326099;28;20064;-61
2023/08/27 12:10:11;;;;;;;0.90;0.43;;;;;;;26.62;55.66;99857.84;8329303;28;20044;-59
2023/08/27 12:14:11;;;;;;;1.25;0.60;;;;;;;26.65;52.81;99854.56;8329296;28;20566;-59
2023/08/27 12:18:12;;;;;;;0.75;0.40;;;;;;;26.45;51.42;99851.53;8332184;28;20136;-62
2023/08/27 12:22:15;;;;;;;2.20;0.60;;;;;;;26.06;52.04;99849.94;8330046;28;20043;-62
2023/08/27 12:26:15;;;;;;;2.65;0.60;;;;;;;26.23;52.05;99839.59;8332355;28;20045;-62
2023/08/27 12:30:16;;;;;;;1.33;0.57;;;;;;;26.14;50.95;99838.38;8328934;28;20226;-62
2023/08/27 12:34:17;;;;;;;1.20;0.55;;;;;;;25.97;52.07;99845.03;8322958;28;20551;-60
2023/08/27 12:38:18;;;;;;;0.90;0.40;;;;;;;25.83;51.29;99852.88;8308768;28;20046;-62
2023/08/27 12:42:18;;;;;;;3.75;0.63;;;;;;;25.41;52.37;99860.03;8328128;28;20068;-63
2023/08/27 12:46:19;;;;;;;2.47;0.70;;;;;;;24.92;57.23;99863.56;8323524;28;20119;-62
2023/08/27 12:50:19;;;;;;;2.97;0.70;;;;;;;24.40;60.74;99864.75;8305544;28;20057;-62
2023/08/27 12:54:20;;;;;;;1.75;0.70;;;;;;;24.72;62.53;99854.91;8305448;28;20061;-62
2023/08/27 12:58:20;;;;;;;1.08;0.50;;;;;;;25.00;59.48;99841.88;8308244;28;20770;-60
2023/08/27 13:02:21;;;;;;;3.03;0.63;;;;;;;25.19;56.49;99849.94;8309936;28;20096;-60
2023/08/27 13:06:21;;;;;;;1.58;0.43;;;;;;;25.11;54.80;99847.56;8305891;28;20042;-60
2023/08/27 13:10:22;;;;;;;3.60;0.68;;;;;;;25.00;56.78;99857.63;8307872;28;20045;-60
2023/08/27 13:14:23;;;;;;;5.65;1.55;;;;;;;24.96;54.13;99859.22;8305366;28;20041;-60
2023/08/27 13:18:23;;;;;;;2.50;0.50;;;;;;;25.20;54.63;99849.69;8304920;28;20438;-60
2023/08/27 13:22:24;;;;;;;1.52;0.40;;;;;;;25.73;54.13;99847.22;8308156;28;20129;-60
2023/08/27 13:26:24;;;;;;;1.48;0.80;;;;;;;25.61;52.29;99849.25;8305561;28;20034;-60
2023/08/27 13:30:25;;;;;;;0.90;0.50;;;;;;;25.67;53.60;99852.94;8308835;28;20038;-60
2023/08/27 13:34:25;;;;;;;1.75;0.40;;;;;;;25.40;53.30;99854.75;8305161;28;20053;-60
2023/08/27 13:38:27;;;;;;;1.23;0.50;;;;;;;24.81;54.17;99861.69;8307700;28;20453;-60
2023/08/27 13:42:27;;;;;;;0.45;0.28;;;;;;;24.36;56.44;99871.84;8301946;28;20052;-60
2023/08/27 13:46:27;;;;;;;2.42;0.40;;;;;;;24.34;58.17;99885.91;8303799;28;20033;-61
2023/08/27 13:50:28;;;;;;;2.13;0.43;;;;;;;24.47;56.78;99876.50;8319074;28;20515;-60
2023/08/27 13:54:28;;;;;;;0.93;0.40;;;;;;;24.05;57.43;99875.03;8304295;28;20041;-61
2023/08/27 13:58:29;;;;;;;2.53;0.40;;;;;;;24.27;57.51;99873.31;8306678;28;20265;-60
2023/08/27 14:02:31;;;;;;;2.35;0.57;;;;;;;24.46;57.23;99872.06;8307430;28;20506;-60
2023/08/27 14:06:31;;;;;;;1.38;0.30;;;;;;;24.75;55.86;99882.06;8304587;28;20062;-60
2023/08/27 14:10:32;;;;;;;1.67;0.55;;;;;;;24.51;55.10;99881.28;8306844;28;20479;-62
2023/08/27 14:14:32;;;;;;;3.78;0.70;;;;;;;23.62;62.36;99902.19;8303546;28;20124;-62
2023/08/27 14:18:32;;;;;;;3.58;0.85;;;;;;;22.32;69.58;99886.53;8303005;28;20068;-62
2023/08/27 14:22:33;;;;;;;1.00;0.30;;;;;;;22.24;67.62;99884.13;8306779;28;20042;-62
2023/08/27 14:26:37;;;;;;;4.22;0.73;;;;;;;22.43;64.79;99891.28;8303324;28;20049;-62
2023/08/27 14:30:37;;;;;;;1.35;0.40;;;;;;;22.59;62.88;99881.53;8305722;28;20099;-61
2023/08/27 14:34:38;;;;;;;0.98;0.35;;;;;;;22.65;64.37;99883.38;8304332;28;20484;-62
2023/08/27 14:38:40;;;;;;;1.75;0.45;;;;;;;22.62;66.87;99887.44;8305416;28;20037;-62
2023/08/27 14:42:40;;;;;;;3.22;0.68;;;;;;;22.57;68.39;99886.47;8302653;28;20046;-62
2023/08/27 14:46:41;;;;;;;1.05;0.50;;;;;;;22.72;68.93;99900.66;8302123;28;20120;-62
2023/08/27 14:50:41;;;;;;;2.95;0.50;;;;;;;22.85;67.77;99901.31;8302898;28;20119;-61
2023/08/27 14:54:44;;;;;;;1.10;0.50;;;;;;;21.95;70.83;99920.66;8305791;28;20238;-62
2023/08/27 14:58:49;;;;;;;6.05;0.80;;;;;;;20.52;77.13;99941.00;8301702;28;20038;-62
2023/08/27 15:02:50;;;;;;;2.08;0.80;;;;;;;20.09;82.32;99948.09;8303542;28;20514;-61
2023/08/27 15:06:50;;;;;;;4.93;0.65;;;;;;;19.73;85.51;99954.06;8303534;28;20415;-62
2023/08/27 15:10:51;;;;;;;3.75;0.82;;;;;;;19.71;86.72;99952.59;8300556;28;20049;-61
2023/08/27 15:14:52;;;;;;;2.17;0.80;;;;;;;19.73;87.46;99964.22;8302965;28;20144;-62
2023/08/27 15:18:52;;;;;;;1.25;0.75;;;;;;;19.95;91.69;99991.22;8304681;28;20499;-61
2023/08/27 15:22:53;;;;;;;4.03;1.25;;;;;;;20.18;89.71;100004.47;8305237;28;20049;-61
2023/08/27 15:26:53;;;;;;;4.70;1.27;;;;;;;20.38;93.10;100005.28;8301262;28;20042;-59
2023/08/27 15:30:54;;;;;;;4.30;1.30;;;;;;;20.15;95.13;99991.16;8301940;28;20088;-60
2023/08/27 15:34:54;;;;;;;3.38;1.02;;;;;;;20.12;91.35;99986.97;8302723;28;20034;-60
2023/08/27 15:38:55;;;;;;;3.92;0.68;;;;;;;20.17;89.73;99961.63;8301591;28;20053;-60
2023/08/27 15:43:18;;;;;;;1.10;0.70;;;;;;;20.53;90.26;99970.16;8300621;28;20096;-60
2023/08/27 15:47:19;;;;;;;4.97;0.57;;;;;;;20.84;87.19;99956.47;8292213;28;20337;-60
2023/08/27 15:51:20;;;;;;;1.63;0.82;;;;;;;20.82;84.29;99951.19;8323851;28;20566;-60
2023/08/27 15:55:21;;;;;;;0.80;0.50;;;;;;;20.88;83.96;99961.28;8301548;28;20033;-60
2023/08/27 15:59:21;;;;;;;0.65;0.50;;;;;;;20.80;84.73;99968.97;8301545;28;20048;-60
2023/08/27 16:03:22;;;;;;;2.25;0.40;;;;;;;20.88;82.42;99972.28;8302163;28;20052;-60
2023/08/27 16:07:22;;;;;;;1.35;0.50;;;;;;;21.14;80.36;99965.81;8301049;28;20045;-60
2023/08/27 16:11:23;;;;;;;3.28;0.70;;;;;;;21.16;79.44;99974.66;8304963;28;20526;-60
2023/08/27 16:15:24;;;;;;;0.73;0.30;;;;;;;21.21;77.18;99967.47;8305374;28;20041;-60
2023/08/27 16:19:24;;;;;;;1.48;0.40;;;;;;;21.21;75.42;99969.34;8305156;28;20056;-60
2023/08/27 16:23:25;;;;;;;1.30;0.30;;;;;;;21.29;74.73;99969.09;8308212;28;20503;-60
2023/08/27 16:27:26;;;;;;;0.30;0.20;;;;;;;21.43;71.88;99969.84;8305659;28;20045;-60
2023/08/27 16:31:27;;;;;;;2.05;0.40;;;;;;;21.46;71.23;99963.91;8308217;28;20041;-60
2023/08/27 16:35:27;;;;;;;1.85;0.35;;;;;;;21.45;70.67;99971.28;8306674;28;20034;-59
2023/08/27 16:39:28;;;;;;;1.38;0.50;;;;;;;21.39;68.91;99974.94;8306657;28;20037;-59
2023/08/27 16:43:28;;;;;;;0.60;0.30;;;;;;;21.31;69.12;99977.94;8305622;28;20037;-59
2023/08/27 16:47:29;;;;;;;1.13;0.20;;;;;;;21.26;68.18;99975.03;8303231;28;20198;-61
2023/08/27 16:51:30;;;;;;;1.02;0.30;;;;;;;21.20;68.84;99984.19;8304315;28;20352;-61
2023/08/27 16:55:30;;;;;;;1.60;1.20;;;;;;;21.09;69.10;99991.22;8304365;28;20041;-61
2023/08/27 16:59:31;;;;;;;5.50;3.55;;;;;;;21.00;68.54;100008.19;8305814;28;20088;-61
2023/08/27 17:03:31;;;;;;;15.70;9.77;;;;;;;20.99;69.04;100007.38;8307337;28;20052;-62
2023/08/27 17:07:31;;;;;;;6.22;0.52;;;;;;;20.90;68.27;100007.78;8304859;28;20053;-62
2023/08/27 17:11:32;;;;;;;2.35;0.45;;;;;;;20.78;69.27;99998.56;8305485;28;20057;-62
2023/08/27 17:15:33;;;;;;;2.05;0.20;;;;;;;20.89;69.37;100000.63;8304526;28;20045;-62
2023/08/27 17:19:36;;;;;;;2.10;0.63;;;;;;;20.93;70.64;100010.97;8302224;28;20483;-61
2023/08/27 17:23:37;;;;;;;0.30;0.20;;;;;;;20.96;71.39;100012.44;8307095;28;20103;-62
2023/08/27 17:27:38;;;;;;;1.70;0.63;;;;;;;20.97;71.89;100011.38;8304525;28;20470;-61
2023/08/27 17:31:38;;;;;;;1.80;0.70;;;;;;;20.83;71.52;100013.31;8307082;28;20040;-62
2023/08/27 17:35:40;;;;;;;1.13;0.60;;;;;;;20.73;72.75;100023.09;8304805;28;20487;-62
2023/08/27 17:39:41;;;;;;;0.80;0.55;;;;;;;20.65;73.45;100034.34;8305277;28;20040;-62
2023/08/27 17:43:41;;;;;;;0.98;0.40;;;;;;;20.47;74.61;100045.16;8305696;28;20038;-61
2023/08/27 17:47:43;;;;;;;1.65;0.32;;;;;;;20.23;74.78;100037.63;8303752;28;20563;-62
2023/08/27 17:51:44;;;;;;;0.88;0.40;;;;;;;20.19;75.01;100039.13;8303867;28;20491;-62
2023/08/27 17:55:44;;;;;;;0.40;0.40;;;;;;;19.98;76.06;100039.31;8306002;28;20482;-62
2023/08/27 17:59:45;;;;;;;1.13;0.40;;;;;;;19.84;77.00;100043.13;8309180;28;20030;-60
2023/08/27 18:03:45;;;;;;;1.67;0.60;;;;;;;19.73;78.52;100049.25;8308623;28;20124;-60
2023/08/27 18:07:46;;;;;;;3.85;0.45;;;;;;;19.62;79.00;100047.97;8307843;28;20048;-58
2023/08/27 18:11:46;;;;;;;1.05;0.70;;;;;;;19.57;79.82;100052.41;8307658;28;20176;-60
2023/08/27 18:15:47;;;;;;;1.77;0.40;;;;;;;19.38;80.67;100052.19;8305982;28;20068;-58
2023/08/27 18:19:47;;;;;;;1.17;0.50;;;;;;;19.31;81.69;100045.00;8305341;28;20037;-59
2023/08/27 18:23:48;;;;;;;1.48;0.32;;;;;;;19.19;81.94;100052.09;8309069;28;20045;-59
2023/08/27 18:27:48;;;;;;;1.25;0.50;;;;;;;19.01;82.38;100051.84;8306124;28;20049;-59
2023/08/27 18:31:49;;;;;;;2.00;0.60;;;;;;;19.11;82.39;100058.63;8306834;28;20499;-59
2023/08/27 18:35:49;;;;;;;3.45;0.60;;;;;;;18.79;89.06;100053.84;8303995;28;20033;-59
2023/08/27 18:39:50;;;;;;;0.77;0.52;;;;;;;18.61;88.99;100064.53;8302732;28;20049;-59
2023/08/27 18:43:50;;;;;;;1.77;0.63;;;;;;;18.40;90.55;100070.09;8303034;28;20053;-59
2023/08/27 18:47:51;;;;;;;3.83;0.73;;;;;;;18.30;90.80;100069.56;8301261;28;20065;-59
2023/08/27 18:51:51;;;;;;;1.20;0.60;;;;;;;18.33;92.16;100071.91;8305195;28;20052;-59